Time;durP1;ratioP1;P1;durP2;ratioP2;P2;SDS_P1;SDS_P2;PMS_P1;PMS_P2;Temp;Humidity;BMP_temperature;BMP_pressure;BME280_temperature;BME280_humidity;BME280_pressure;Samples;Min_cycle;Max_cycle;Signal;HPM_P1;HPM_P2
2023/09/18 00:01:25;;;;;;;;;;;19.70;88.60;;;;;;4959321;28;19977;-85
2023/09/18 00:03:50;;;;;;;;;;;19.70;88.20;;;;;;4960749;28;19919;-86
2023/09/18 00:06:16;;;;;;;;;;;19.80;88.00;;;;;;4963977;28;19919;-86
2023/09/18 00:08:41;;;;;;;;;;;19.80;88.00;;;;;;4959059;28;19921;-82
2023/09/18 00:11:07;;;;;;;;;;;19.80;88.00;;;;;;4965129;28;19917;-84
2023/09/18 00:13:32;;;;;;;;;;;19.80;88.00;;;;;;4959068;28;19940;-85
2023/09/18 00:15:59;;;;;;;;;;;19.70;88.00;;;;;;4962016;28;19918;-84
2023/09/18 00:18:25;;;;;;;;;;;19.70;87.90;;;;;;4958448;28;19923;-83
2023/09/18 00:20:51;;;;;;;;;;;19.70;87.70;;;;;;4958473;28;19931;-84
2023/09/18 00:23:17;;;;;;;;;;;19.60;87.80;;;;;;4958673;28;19911;-83
2023/09/18 00:25:42;;;;;;;;;;;19.70;87.90;;;;;;4958442;28;19942;-86
2023/09/18 00:28:08;;;;;;;;;;;19.60;87.80;;;;;;4957231;28;19970;-85
2023/09/18 00:30:34;;;;;;;;;;;19.70;87.60;;;;;;4956977;28;20287;-84
2023/09/18 00:32:59;;;;;;;;;;;19.60;87.70;;;;;;4958254;28;19917;-84
2023/09/18 00:35:25;;;;;;;;;;;19.60;87.90;;;;;;4958328;28;19922;-84
2023/09/18 00:37:50;;;;;;;;;;;19.60;88.00;;;;;;4955868;28;19961;-84
2023/09/18 00:40:16;;;;;;;;;;;19.60;88.20;;;;;;4965640;28;19918;-85
2023/09/18 00:42:41;;;;;;;;;;;19.60;87.80;;;;;;4959625;28;19921;-84
2023/09/18 00:45:08;;;;;;;;;;;19.60;88.00;;;;;;4954910;28;19942;-85
2023/09/18 00:47:35;;;;;;;;;;;19.50;88.10;;;;;;4956346;28;20025;-84
2023/09/18 00:50:01;;;;;;;;;;;19.50;88.30;;;;;;4958675;28;19918;-85
2023/09/18 00:52:27;;;;;;;;;;;19.60;88.10;;;;;;4955554;28;19969;-84
2023/09/18 00:54:53;;;;;;;;;;;19.60;87.90;;;;;;4955686;28;19933;-83
2023/09/18 00:57:19;;;;;;;;;;;19.60;88.00;;;;;;4954847;28;20009;-85
2023/09/18 00:59:45;;;;;;;;;;;19.60;87.80;;;;;;4952936;28;19922;-85
2023/09/18 01:02:10;;;;;;;;;;;19.60;87.80;;;;;;4952925;28;19915;-84
2023/09/18 01:04:37;;;;;;;;;;;19.60;87.70;;;;;;4956612;28;19914;-84
2023/09/18 01:07:05;;;;;;;;;;;19.60;87.70;;;;;;4953427;28;19925;-84
2023/09/18 01:09:32;;;;;;;;;;;19.60;87.90;;;;;;4956271;28;19910;-85
2023/09/18 01:12:01;;;;;;;;;;;19.60;87.70;;;;;;4959862;28;19919;-85
2023/09/18 01:14:45;;;;;;;;;;;19.60;87.90;;;;;;4957149;28;19910;-84
2023/09/18 01:17:13;;;;;;;;;;;19.50;87.90;;;;;;4954997;28;19950;-84
2023/09/18 01:19:45;;;;;;;;;;;19.50;88.00;;;;;;4956694;28;19961;-85
2023/09/18 01:22:11;;;;;;;;;;;19.50;87.90;;;;;;4960461;28;19911;-85
2023/09/18 01:24:37;;;;;;;;;;;19.50;87.90;;;;;;4955002;28;19986;-85
2023/09/18 01:27:06;;;;;;;;;;;19.40;87.90;;;;;;4954685;28;19922;-85
2023/09/18 01:29:32;;;;;;;;;;;19.40;87.90;;;;;;4957470;28;19940;-85
2023/09/18 01:31:58;;;;;;;;;;;19.40;87.70;;;;;;4955145;28;19918;-85
2023/09/18 01:34:31;;;;;;;;;;;19.50;87.70;;;;;;4953085;28;20308;-85
2023/09/18 01:36:57;;;;;;;;;;;19.40;87.80;;;;;;4952613;28;19910;-85
2023/09/18 01:39:23;;;;;;;;;;;19.50;87.60;;;;;;4957211;28;19910;-86
2023/09/18 01:41:49;;;;;;;;;;;19.40;87.70;;;;;;4960141;28;20392;-85
2023/09/18 01:44:15;;;;;;;;;;;19.40;87.80;;;;;;4959608;28;19970;-84
2023/09/18 01:46:40;;;;;;;;;;;19.40;87.70;;;;;;4958129;28;19961;-85
2023/09/18 01:49:06;;;;;;;;;;;19.30;87.90;;;;;;4959226;28;19921;-85
2023/09/18 01:51:31;;;;;;;;;;;19.40;88.00;;;;;;4960409;28;19950;-84
2023/09/18 01:53:57;;;;;;;;;;;19.30;88.00;;;;;;4959377;28;19915;-84
2023/09/18 01:56:23;;;;;;;;;;;19.40;88.00;;;;;;4963265;28;19914;-85
2023/09/18 01:58:49;;;;;;;;;;;19.30;88.00;;;;;;4961500;28;19991;-84
2023/09/18 02:01:14;;;;;;;;;;;19.40;88.20;;;;;;4960583;28;20433;-85
2023/09/18 02:03:42;;;;;;;;;;;19.40;88.20;;;;;;4955044;28;20377;-85
2023/09/18 02:06:11;;;;;;;;;;;19.40;88.20;;;;;;4962209;28;20005;-85
2023/09/18 02:08:36;;;;;;;;;;;19.30;88.20;;;;;;4959940;28;20379;-83
2023/09/18 02:11:05;;;;;;;;;;;19.40;88.20;;;;;;4959677;28;19923;-85
2023/09/18 02:13:30;;;;;;;;;;;19.40;88.10;;;;;;4959893;28;19961;-85
2023/09/18 02:15:56;;;;;;;;;;;19.40;88.10;;;;;;4954923;28;19915;-83
2023/09/18 02:18:21;;;;;;;;;;;19.30;88.10;;;;;;4959999;28;19926;-84
2023/09/18 02:20:48;;;;;;;;;;;19.30;88.00;;;;;;4957271;28;20400;-85
2023/09/18 02:23:15;;;;;;;;;;;19.30;87.90;;;;;;4955553;28;19989;-85
2023/09/18 02:25:40;;;;;;;;;;;19.30;88.10;;;;;;4957933;29;19914;-85
2023/09/18 02:28:06;;;;;;;;;;;19.30;87.90;;;;;;4957069;29;19914;-85
2023/09/18 02:30:31;;;;;;;;;;;19.30;88.10;;;;;;4957148;29;19914;-85
2023/09/18 02:32:57;;;;;;;;;;;19.30;88.00;;;;;;4953967;28;19921;-86
2023/09/18 02:35:22;;;;;;;;;;;19.30;88.00;;;;;;4956305;28;19950;-86
2023/09/18 02:37:48;;;;;;;;;;;19.20;88.00;;;;;;4959139;28;19914;-85
2023/09/18 02:40:13;;;;;;;;;;;19.40;87.60;;;;;;4958794;29;19918;-84
2023/09/18 02:42:39;;;;;;;;;;;19.30;87.60;;;;;;4958468;29;19915;-86
2023/09/18 02:45:05;;;;;;;;;;;19.30;87.70;;;;;;4957449;28;19984;-84
2023/09/18 02:47:30;;;;;;;;;;;19.30;87.80;;;;;;4958782;28;19973;-85
2023/09/18 02:49:56;;;;;;;;;;;19.30;87.80;;;;;;4956668;28;19914;-85
2023/09/18 02:52:21;;;;;;;;;;;19.30;87.90;;;;;;4955729;28;20016;-86
2023/09/18 02:54:47;;;;;;;;;;;19.30;87.90;;;;;;4955664;28;19922;-86
2023/09/18 02:57:13;;;;;;;;;;;19.30;87.90;;;;;;4956777;28;19914;-86
2023/09/18 02:59:38;;;;;;;;;;;19.30;88.10;;;;;;4957266;28;19973;-86
2023/09/18 03:02:04;;;;;;;;;;;19.30;87.90;;;;;;4954074;28;19918;-85
2023/09/18 03:04:30;;;;;;;;;;;19.30;87.90;;;;;;4958840;28;19915;-85
2023/09/18 03:06:56;;;;;;;;;;;19.30;88.00;;;;;;4952122;28;20021;-86
2023/09/18 03:09:21;;;;;;;;;;;19.30;87.80;;;;;;4959410;28;20505;-86
2023/09/18 03:11:47;;;;;;;;;;;19.40;87.90;;;;;;4960122;28;19923;-85
2023/09/18 03:14:13;;;;;;;;;;;19.40;87.90;;;;;;4961832;28;19967;-85
2023/09/18 03:16:38;;;;;;;;;;;19.50;87.70;;;;;;4955874;28;19918;-85
2023/09/18 03:19:03;;;;;;;;;;;19.50;87.70;;;;;;4960758;28;19929;-85
2023/09/18 03:21:30;;;;;;;;;;;19.50;87.20;;;;;;4961385;29;20356;-84
2023/09/18 03:23:57;;;;;;;;;;;19.60;86.80;;;;;;4959851;28;19956;-85
2023/09/18 03:26:23;;;;;;;;;;;19.80;84.60;;;;;;4960277;28;19915;-84
2023/09/18 03:28:48;;;;;;;;;;;20.20;81.80;;;;;;4962011;28;19917;-85
2023/09/18 03:31:14;;;;;;;;;;;20.50;80.80;;;;;;4955856;28;19929;-85
2023/09/18 03:33:39;;;;;;;;;;;20.60;80.40;;;;;;4960189;28;19914;-85
2023/09/18 03:36:05;;;;;;;;;;;20.70;80.00;;;;;;4961307;28;20001;-86
2023/09/18 03:38:32;;;;;;;;;;;20.90;79.20;;;;;;4959173;28;20380;-84
2023/09/18 03:40:59;;;;;;;;;;;21.00;78.70;;;;;;4960070;28;19910;-84
2023/09/18 03:43:24;;;;;;;;;;;21.00;78.90;;;;;;4961610;28;19914;-84
2023/09/18 03:45:50;;;;;;;;;;;21.10;78.40;;;;;;4957691;28;19925;-84
2023/09/18 03:48:15;;;;;;;;;;;21.10;77.60;;;;;;4955422;28;19915;-84
2023/09/18 03:50:41;;;;;;;;;;;21.30;77.30;;;;;;4960090;28;19911;-84
2023/09/18 03:53:06;;;;;;;;;;;21.30;76.90;;;;;;4959324;28;19915;-84
2023/09/18 03:55:32;;;;;;;;;;;21.30;77.50;;;;;;4960420;29;19921;-84
2023/09/18 03:57:57;;;;;;;;;;;21.30;77.00;;;;;;4958710;28;19918;-85
2023/09/18 04:00:23;;;;;;;;;;;21.30;77.20;;;;;;4960119;28;19929;-84
2023/09/18 04:02:48;;;;;;;;;;;21.40;77.20;;;;;;4957385;28;19923;-84
2023/09/18 04:05:14;;;;;;;;;;;21.30;77.70;;;;;;4955790;28;19926;-85
2023/09/18 04:07:39;;;;;;;;;;;21.30;77.70;;;;;;4957622;28;19918;-85
2023/09/18 04:10:05;;;;;;;;;;;21.20;77.80;;;;;;4958545;28;20368;-86
2023/09/18 04:12:31;;;;;;;;;;;21.20;78.00;;;;;;4957424;28;19914;-85
2023/09/18 04:14:57;;;;;;;;;;;21.20;78.60;;;;;;4957054;28;19950;-86
2023/09/18 04:17:22;;;;;;;;;;;21.20;78.10;;;;;;4957093;28;19938;-85
2023/09/18 04:19:48;;;;;;;;;;;21.30;77.80;;;;;;4959240;28;19926;-85
2023/09/18 04:22:13;;;;;;;;;;;21.20;78.50;;;;;;4959534;28;19914;-85
2023/09/18 04:24:39;;;;;;;;;;;21.10;78.50;;;;;;4960289;29;19910;-84
2023/09/18 04:27:04;;;;;;;;;;;21.20;78.30;;;;;;4957156;28;19953;-84
2023/09/18 04:29:30;;;;;;;;;;;21.30;78.00;;;;;;4950975;28;20396;-84
2023/09/18 04:31:56;;;;;;;;;;;21.30;77.60;;;;;;4955108;28;19926;-85
2023/09/18 04:34:22;;;;;;;;;;;21.40;77.50;;;;;;4953841;28;19915;-85
2023/09/18 04:36:47;;;;;;;;;;;21.30;78.00;;;;;;4955565;28;19914;-85
2023/09/18 04:39:13;;;;;;;;;;;21.40;77.40;;;;;;4956126;29;20077;-85
2023/09/18 04:41:39;;;;;;;;;;;21.40;77.70;;;;;;4954673;28;19915;-85
2023/09/18 04:44:05;;;;;;;;;;;21.40;77.60;;;;;;4961477;28;19922;-85
2023/09/18 04:46:30;;;;;;;;;;;21.40;77.40;;;;;;4956412;28;20467;-85
2023/09/18 04:48:56;;;;;;;;;;;21.40;77.60;;;;;;4961298;28;20344;-83
2023/09/18 04:51:21;;;;;;;;;;;21.50;77.30;;;;;;4955272;28;19914;-85
2023/09/18 04:53:47;;;;;;;;;;;21.50;77.60;;;;;;4958574;28;20398;-85
2023/09/18 04:56:13;;;;;;;;;;;21.50;77.60;;;;;;4962164;29;19915;-84
2023/09/18 04:58:38;;;;;;;;;;;21.50;77.30;;;;;;4958326;28;20020;-85
2023/09/18 05:01:05;;;;;;;;;;;21.50;77.80;;;;;;4953778;28;19919;-87
2023/09/18 05:03:33;;;;;;;;;;;21.50;78.20;;;;;;4953103;28;19954;-87
2023/09/18 05:05:58;;;;;;;;;;;21.40;77.80;;;;;;4950435;28;19929;-83
2023/09/18 05:08:24;;;;;;;;;;;21.40;77.80;;;;;;4968188;28;19950;-86
2023/09/18 05:10:50;;;;;;;;;;;21.40;77.50;;;;;;4961658;28;21042;-87
2023/09/18 05:13:15;;;;;;;;;;;21.40;77.70;;;;;;4965818;28;19946;-87
2023/09/18 05:15:41;;;;;;;;;;;21.40;78.10;;;;;;4965593;28;19915;-87
2023/09/18 05:18:06;;;;;;;;;;;21.30;78.00;;;;;;4966433;28;19919;-85
2023/09/18 05:20:34;;;;;;;;;;;21.30;78.20;;;;;;4964016;28;19946;-83
2023/09/18 05:23:00;;;;;;;;;;;21.30;77.70;;;;;;4964879;28;20013;-88
2023/09/18 05:25:26;;;;;;;;;;;21.30;78.00;;;;;;4958124;28;19945;-85
2023/09/18 05:27:56;;;;;;;;;;;21.30;77.90;;;;;;4957596;28;20427;-86
2023/09/18 05:30:25;;;;;;;;;;;21.30;78.10;;;;;;4953913;28;19966;-89
2023/09/18 05:32:50;;;;;;;;;;;21.30;77.90;;;;;;4946286;28;19934;-85
2023/09/18 05:35:16;;;;;;;;;;;21.20;78.50;;;;;;4947518;28;20017;-87
2023/09/18 05:37:42;;;;;;;;;;;21.10;79.00;;;;;;4946142;28;20402;-87
2023/09/18 05:40:11;;;;;;;;;;;21.10;78.90;;;;;;4956516;28;19934;-86
2023/09/18 05:42:43;;;;;;;;;;;21.10;79.00;;;;;;4950527;28;19946;-85
2023/09/18 05:45:09;;;;;;;;;;;21.10;79.00;;;;;;4953077;28;19914;-86
2023/09/18 05:47:38;;;;;;;;;;;21.20;79.00;;;;;;4957344;28;19918;-87
2023/09/18 05:50:09;;;;;;;;;;;21.10;79.20;;;;;;4956344;28;20269;-87
2023/09/18 05:52:35;;;;;;;;;;;21.10;79.30;;;;;;4971506;28;19922;-87
2023/09/18 05:55:02;;;;;;;;;;;21.10;79.50;;;;;;4960662;28;19918;-87
2023/09/18 05:57:27;;;;;;;;;;;21.10;78.90;;;;;;4952986;28;19915;-87
2023/09/18 05:59:54;;;;;;;;;;;21.10;79.00;;;;;;4946857;28;20438;-87
2023/09/18 06:02:20;;;;;;;;;;;21.10;79.40;;;;;;4953817;28;19961;-86
2023/09/18 06:04:46;;;;;;;;;;;21.10;79.40;;;;;;4950199;28;19911;-87
2023/09/18 06:07:12;;;;;;;;;;;21.10;80.20;;;;;;4958283;28;19925;-87
2023/09/18 06:09:38;;;;;;;;;;;21.00;79.70;;;;;;4952236;28;19915;-87
2023/09/18 06:12:04;;;;;;;;;;;21.10;79.50;;;;;;4965866;28;19914;-86
2023/09/18 06:14:30;;;;;;;;;;;21.10;79.30;;;;;;4968857;28;20372;-86
2023/09/18 06:16:56;;;;;;;;;;;21.10;79.30;;;;;;4955107;28;19919;-86
2023/09/18 06:19:21;;;;;;;;;;;21.10;79.20;;;;;;4959358;28;20009;-86
2023/09/18 06:21:47;;;;;;;;;;;21.20;78.90;;;;;;4957107;28;20309;-86
2023/09/18 06:24:13;;;;;;;;;;;21.20;79.00;;;;;;4960293;28;20348;-87
2023/09/18 06:26:39;;;;;;;;;;;21.30;78.70;;;;;;4959738;28;19929;-86
2023/09/18 06:29:05;;;;;;;;;;;21.30;78.80;;;;;;4969008;28;20315;-86
2023/09/18 06:31:31;;;;;;;;;;;21.20;79.10;;;;;;4957456;28;20005;-86
2023/09/18 06:33:56;;;;;;;;;;;21.30;78.90;;;;;;4978253;28;19918;-86
2023/09/18 06:36:22;;;;;;;;;;;21.30;78.80;;;;;;4953231;28;19919;-86
2023/09/18 06:38:47;;;;;;;;;;;21.20;79.00;;;;;;4960701;28;19982;-86
2023/09/18 06:41:13;;;;;;;;;;;21.20;79.10;;;;;;4961271;28;19914;-87
2023/09/18 06:43:38;;;;;;;;;;;21.20;78.90;;;;;;4956104;28;19950;-86
2023/09/18 06:46:03;;;;;;;;;;;21.30;78.70;;;;;;4953540;28;19920;-87
2023/09/18 06:48:32;;;;;;;;;;;21.30;78.70;;;;;;4953800;28;20838;-89
2023/09/18 06:50:58;;;;;;;;;;;21.30;79.20;;;;;;4955252;29;20269;-88
2023/09/18 06:53:24;;;;;;;;;;;21.30;78.90;;;;;;4958388;29;19958;-87
2023/09/18 06:55:49;;;;;;;;;;;21.30;78.60;;;;;;4952878;28;19915;-87
2023/09/18 06:58:15;;;;;;;;;;;21.30;78.80;;;;;;4954161;28;20488;-87
2023/09/18 07:00:40;;;;;;;;;;;21.30;78.80;;;;;;4961887;28;19925;-86
2023/09/18 07:03:06;;;;;;;;;;;21.40;78.20;;;;;;4967673;28;20034;-85
2023/09/18 07:05:31;;;;;;;;;;;21.30;78.10;;;;;;4966013;28;19941;-85
2023/09/18 07:07:57;;;;;;;;;;;21.50;78.10;;;;;;4951746;28;19926;-87
2023/09/18 07:10:22;;;;;;;;;;;21.40;78.40;;;;;;4958238;28;20754;-85
2023/09/18 07:12:49;;;;;;;;;;;21.50;78.00;;;;;;4955930;28;19926;-85
2023/09/18 07:15:14;;;;;;;;;;;21.40;78.10;;;;;;4955233;28;19919;-86
2023/09/18 07:17:40;;;;;;;;;;;21.40;78.10;;;;;;4949262;28;19915;-86
2023/09/18 07:20:13;;;;;;;;;;;21.30;78.50;;;;;;4952484;28;19918;-86
2023/09/18 07:22:40;;;;;;;;;;;21.40;78.30;;;;;;4948141;28;19925;-85
2023/09/18 07:25:06;;;;;;;;;;;21.40;78.10;;;;;;4961312;28;19914;-86
2023/09/18 07:27:32;;;;;;;;;;;21.50;78.20;;;;;;4949117;28;19918;-86
2023/09/18 07:29:57;;;;;;;;;;;21.50;78.00;;;;;;4954173;28;19922;-86
2023/09/18 07:32:24;;;;;;;;;;;21.60;78.00;;;;;;4952135;28;19914;-86
2023/09/18 07:34:50;;;;;;;;;;;21.60;77.80;;;;;;4951168;28;19922;-86
2023/09/18 07:37:20;;;;;;;;;;;21.60;77.60;;;;;;4955934;28;19922;-87
2023/09/18 07:39:46;;;;;;;;;;;21.70;77.10;;;;;;4949334;28;19915;-86
2023/09/18 07:42:11;;;;;;;;;;;21.60;77.20;;;;;;4954100;28;19911;-85
2023/09/18 07:44:37;;;;;;;;;;;21.60;77.20;;;;;;4953336;28;19923;-86
2023/09/18 07:47:03;;;;;;;;;;;21.90;76.70;;;;;;4955566;28;19918;-86
2023/09/18 07:49:28;;;;;;;;;;;21.80;77.10;;;;;;4961228;28;19914;-87
2023/09/18 07:51:54;;;;;;;;;;;21.90;76.60;;;;;;4960792;28;19930;-86
2023/09/18 07:54:19;;;;;;;;;;;22.00;76.30;;;;;;4959897;28;19922;-87
2023/09/18 07:56:45;;;;;;;;;;;22.10;76.10;;;;;;4953917;28;19911;-87
2023/09/18 07:59:10;;;;;;;;;;;22.20;75.30;;;;;;4974295;28;20009;-86
2023/09/18 08:01:36;;;;;;;;;;;22.20;74.90;;;;;;4975337;28;19917;-85
2023/09/18 08:04:02;;;;;;;;;;;22.10;75.20;;;;;;4978918;28;19910;-85
2023/09/18 08:06:28;;;;;;;;;;;22.10;75.80;;;;;;4975734;28;19914;-85
2023/09/18 08:08:53;;;;;;;;;;;22.20;75.20;;;;;;4977814;28;19946;-86
2023/09/18 08:11:19;;;;;;;;;;;22.10;75.50;;;;;;4971534;28;19906;-85
2023/09/18 08:13:44;;;;;;;;;;;22.10;75.10;;;;;;4979402;28;19964;-87
2023/09/18 08:16:13;;;;;;;;;;;22.20;75.60;;;;;;4958619;28;19919;-88
2023/09/18 08:18:41;;;;;;;;;;;22.10;74.60;;;;;;4954619;28;19918;-88
2023/09/18 08:21:08;;;;;;;;;;;22.10;74.90;;;;;;4953936;29;19925;-88
2023/09/18 08:23:35;;;;;;;;;;;22.10;75.40;;;;;;4954377;29;19940;-87
2023/09/18 08:26:01;;;;;;;;;;;22.20;75.20;;;;;;4955898;28;19918;-86
2023/09/18 08:28:26;;;;;;;;;;;22.10;75.50;;;;;;4951614;28;20001;-86
2023/09/18 08:30:54;;;;;;;;;;;22.10;75.50;;;;;;4956820;29;19978;-88
2023/09/18 08:33:20;;;;;;;;;;;22.10;75.20;;;;;;4959671;28;19915;-88
2023/09/18 08:36:00;;;;;;;;;;;22.10;75.40;;;;;;4957253;28;19923;-85
2023/09/18 08:38:25;;;;;;;;;;;22.00;75.20;;;;;;4951491;28;19966;-87
2023/09/18 08:40:53;;;;;;;;;;;22.00;75.40;;;;;;4955705;28;19915;-88
2023/09/18 08:43:24;;;;;;;;;;;22.00;75.50;;;;;;4952723;28;19915;-88
2023/09/18 08:46:03;;;;;;;;;;;21.80;75.60;;;;;;4953071;28;20319;-89
2023/09/18 08:48:36;;;;;;;;;;;21.90;75.40;;;;;;4956112;29;19918;-89
2023/09/18 08:51:05;;;;;;;;;;;21.90;75.50;;;;;;4951762;28;19920;-87
2023/09/18 08:53:35;;;;;;;;;;;21.90;75.20;;;;;;4957151;28;19981;-88
2023/09/18 08:56:01;;;;;;;;;;;22.00;74.90;;;;;;4960017;28;19918;-88
2023/09/18 08:58:39;;;;;;;;;;;22.10;74.60;;;;;;4959917;28;20001;-89
2023/09/18 09:01:06;;;;;;;;;;;22.20;74.30;;;;;;4952005;28;20128;-88
2023/09/18 09:03:34;;;;;;;;;;;22.20;74.30;;;;;;4964936;28;19915;-90
2023/09/18 09:06:01;;;;;;;;;;;22.30;74.10;;;;;;4951276;29;20021;-89
2023/09/18 09:08:29;;;;;;;;;;;22.30;73.70;;;;;;4952275;28;19918;-85
2023/09/18 09:10:57;;;;;;;;;;;22.50;73.50;;;;;;4964097;28;19965;-85
2023/09/18 09:13:26;;;;;;;;;;;22.50;72.70;;;;;;4954200;28;20004;-85
2023/09/18 09:15:53;;;;;;;;;;;22.40;72.80;;;;;;4952300;28;19914;-85
2023/09/18 09:18:19;;;;;;;;;;;22.40;73.00;;;;;;4953450;28;19925;-85
2023/09/18 09:21:01;;;;;;;;;;;22.30;73.10;;;;;;4952146;28;19950;-85
2023/09/18 09:23:27;;;;;;;;;;;22.30;73.10;;;;;;4952100;28;19949;-85
2023/09/18 09:25:53;;;;;;;;;;;22.30;73.00;;;;;;4952871;28;19915;-84
2023/09/18 09:28:29;;;;;;;;;;;22.30;73.00;;;;;;4955040;28;19914;-84
2023/09/18 09:31:01;;;;;;;;;;;22.50;72.80;;;;;;4954296;28;20384;-84
2023/09/18 09:33:26;;;;;;;;;;;22.50;72.60;;;;;;4953675;28;19922;-85
2023/09/18 09:35:52;;;;;;;;;;;22.50;72.50;;;;;;4951597;28;20300;-85
2023/09/18 09:38:19;;;;;;;;;;;22.50;72.80;;;;;;4954259;28;19911;-88
2023/09/18 09:40:45;;;;;;;;;;;22.50;72.20;;;;;;4948358;28;19914;-88
2023/09/18 09:43:13;;;;;;;;;;;22.60;72.30;;;;;;4951332;28;20443;-89
2023/09/18 09:45:39;;;;;;;;;;;22.60;71.40;;;;;;4951156;28;20364;-88
2023/09/18 09:48:06;;;;;;;;;;;22.70;71.60;;;;;;4956097;28;19969;-89
2023/09/18 09:50:32;;;;;;;;;;;22.60;71.60;;;;;;4950472;28;20265;-89
2023/09/18 09:52:58;;;;;;;;;;;22.60;71.10;;;;;;4950948;28;19953;-89
2023/09/18 09:55:30;;;;;;;;;;;22.60;70.60;;;;;;4952006;28;20018;-90
2023/09/18 09:58:01;;;;;;;;;;;22.60;70.70;;;;;;4954333;28;19922;-89
2023/09/18 10:00:45;;;;;;;;;;;22.70;71.00;;;;;;4952926;28;19938;-88
2023/09/18 10:03:14;;;;;;;;;;;22.80;71.10;;;;;;4955963;28;19910;-88
2023/09/18 10:05:44;;;;;;;;;;;22.90;71.10;;;;;;4958850;28;19918;-88
2023/09/18 10:08:11;;;;;;;;;;;23.00;71.80;;;;;;4954007;28;19978;-88
2023/09/18 10:10:39;;;;;;;;;;;22.90;70.60;;;;;;4968362;28;19918;-88
2023/09/18 10:13:07;;;;;;;;;;;22.90;70.10;;;;;;4954262;28;19914;-88
2023/09/18 10:15:33;;;;;;;;;;;22.80;71.20;;;;;;4953960;28;19926;-88
2023/09/18 10:18:00;;;;;;;;;;;22.80;69.80;;;;;;4951096;28;19918;-87
2023/09/18 10:20:26;;;;;;;;;;;22.80;70.40;;;;;;4956841;28;19915;-88
2023/09/18 10:22:56;;;;;;;;;;;22.80;70.20;;;;;;4952182;29;20399;-89
2023/09/18 10:25:28;;;;;;;;;;;22.80;70.30;;;;;;4949561;28;19910;-90
2023/09/18 10:27:58;;;;;;;;;;;22.90;70.20;;;;;;4954787;28;20381;-90
2023/09/18 10:30:25;;;;;;;;;;;22.90;70.30;;;;;;4951187;28;19915;-90
2023/09/18 10:32:51;;;;;;;;;;;22.90;70.20;;;;;;4954378;28;19962;-89
2023/09/18 10:35:17;;;;;;;;;;;22.80;69.60;;;;;;4956202;28;20443;-88
2023/09/18 10:37:43;;;;;;;;;;;22.90;69.70;;;;;;4955588;28;19978;-88
2023/09/18 10:40:09;;;;;;;;;;;22.90;69.20;;;;;;4955568;28;19954;-89
2023/09/18 10:42:37;;;;;;;;;;;23.00;69.30;;;;;;4955052;28;19995;-90
2023/09/18 10:45:04;;;;;;;;;;;23.10;68.80;;;;;;4954422;28;20442;-89
2023/09/18 10:47:30;;;;;;;;;;;23.10;70.20;;;;;;4955227;28;19919;-90
2023/09/18 10:49:56;;;;;;;;;;;23.20;69.80;;;;;;4952012;28;19921;-90
2023/09/18 10:52:21;;;;;;;;;;;23.30;70.20;;;;;;4955476;28;19910;-89
2023/09/18 10:54:47;;;;;;;;;;;23.20;70.10;;;;;;4954865;28;19915;-89
2023/09/18 10:57:18;;;;;;;;;;;23.10;70.80;;;;;;4954804;28;19914;-88
2023/09/18 10:59:44;;;;;;;;;;;23.20;70.10;;;;;;4962297;28;19958;-88
2023/09/18 11:02:17;;;;;;;;;;;23.30;69.50;;;;;;4954752;28;19997;-89
2023/09/18 11:04:53;;;;;;;;;;;23.40;69.30;;;;;;4958947;28;19915;-90
2023/09/18 11:07:22;;;;;;;;;;;23.40;69.20;;;;;;4960678;28;19914;-90
2023/09/18 11:09:54;;;;;;;;;;;23.30;68.00;;;;;;4961900;28;19919;-90
2023/09/18 11:12:19;;;;;;;;;;;23.40;67.90;;;;;;4958231;28;19974;-89
2023/09/18 11:14:58;;;;;;;;;;;23.30;67.00;;;;;;4956158;28;19941;-88
2023/09/18 11:17:53;;;;;;;;;;;23.30;67.10;;;;;;4962092;28;19910;-89
2023/09/18 11:20:24;;;;;;;;;;;23.30;67.40;;;;;;4949074;28;19925;-89
2023/09/18 11:32:15;;;;;;;;;;;23.60;65.90;;;;;;4943200;28;19922;-86
2023/09/18 11:34:44;;;;;;;;;;;23.60;66.60;;;;;;4930301;28;19911;-86
2023/09/18 11:37:19;;;;;;;;;;;23.60;66.20;;;;;;4939434;28;19915;-87
2023/09/18 11:39:46;;;;;;;;;;;23.80;66.10;;;;;;4949256;28;19923;-89
2023/09/18 11:42:32;;;;;;;;;;;;;;;;;;;;;
2023/09/18 11:45:09;;;;;;;;;;;23.90;64.90;;;;;;4959290;29;20021;-89
2023/09/18 11:47:42;;;;;;;;;;;24.00;64.70;;;;;;4957764;28;19919;-90
2023/09/18 11:50:11;;;;;;;;;;;24.00;64.60;;;;;;4953207;29;19919;-89
2023/09/18 11:52:36;;;;;;;;;;;24.00;64.20;;;;;;4959063;28;19910;-88
2023/09/18 11:55:03;;;;;;;;;;;24.10;64.40;;;;;;4957313;28;20638;-88
2023/09/18 11:57:29;;;;;;;;;;;24.10;63.20;;;;;;4956020;29;19917;-88
2023/09/18 12:00:10;;;;;;;;;;;24.20;63.20;;;;;;4959677;28;20130;-89
2023/09/18 12:02:38;;;;;;;;;;;24.20;62.60;;;;;;4964088;28;19995;-88
2023/09/18 12:05:19;;;;;;;;;;;24.10;62.70;;;;;;4972976;28;19910;-89
2023/09/18 12:07:55;;;;;;;;;;;24.10;63.40;;;;;;4976072;29;20001;-92
2023/09/18 12:10:21;;;;;;;;;;;24.10;63.50;;;;;;4968875;29;19965;-89
2023/09/18 12:13:06;;;;;;;;;;;24.20;63.60;;;;;;4948056;29;19911;-92
2023/09/18 12:15:39;;;;;;;;;;;24.40;63.10;;;;;;4950591;28;20323;-89
2023/09/18 12:18:15;;;;;;;;;;;24.40;63.10;;;;;;4967413;28;19934;-89
2023/09/18 12:20:45;;;;;;;;;;;24.30;62.80;;;;;;4952179;29;19911;-88
2023/09/18 12:23:10;;;;;;;;;;;24.30;62.80;;;;;;4949983;28;19949;-87
2023/09/18 12:25:36;;;;;;;;;;;24.10;62.80;;;;;;4951027;28;19921;-90
2023/09/18 12:28:03;;;;;;;;;;;24.20;63.60;;;;;;4953757;28;19954;-89
2023/09/18 12:30:31;;;;;;;;;;;24.30;63.10;;;;;;4952455;28;19921;-88
2023/09/18 12:32:57;;;;;;;;;;;24.30;63.70;;;;;;4951439;28;20341;-88
2023/09/18 12:35:25;;;;;;;;;;;24.40;63.10;;;;;;4949809;28;20009;-86
2023/09/18 12:37:50;;;;;;;;;;;24.50;61.10;;;;;;4953617;28;19956;-88
2023/09/18 12:40:26;;;;;;;;;;;24.50;61.20;;;;;;4959664;28;19914;-88
2023/09/18 12:42:54;;;;;;;;;;;24.50;61.80;;;;;;4958417;28;19914;-89
2023/09/18 12:45:20;;;;;;;;;;;24.30;61.90;;;;;;4970849;28;19974;-85
2023/09/18 12:47:45;;;;;;;;;;;24.20;62.20;;;;;;4967836;28;19923;-86
2023/09/18 12:50:14;;;;;;;;;;;24.30;61.90;;;;;;4955399;28;19914;-86
2023/09/18 12:52:40;;;;;;;;;;;24.40;61.90;;;;;;4949506;28;20292;-86
2023/09/18 12:55:06;;;;;;;;;;;24.50;62.00;;;;;;4952675;28;20372;-88
2023/09/18 12:57:34;;;;;;;;;;;24.70;61.40;;;;;;4951233;28;19914;-88
2023/09/18 13:00:10;;;;;;;;;;;24.70;61.90;;;;;;4956267;28;19925;-87
2023/09/18 13:02:36;;;;;;;;;;;24.80;61.10;;;;;;4962892;28;19910;-86
2023/09/18 13:05:01;;;;;;;;;;;24.80;60.30;;;;;;4959664;28;19942;-86
2023/09/18 13:07:27;;;;;;;;;;;24.80;60.20;;;;;;4941966;28;20463;-86
2023/09/18 13:10:06;;;;;;;;;;;24.70;60.00;;;;;;4943889;28;19921;-86
2023/09/18 13:12:47;;;;;;;;;;;24.60;60.10;;;;;;4954325;28;19949;-87
2023/09/18 13:15:13;;;;;;;;;;;24.70;60.70;;;;;;4958188;28;19911;-85
2023/09/18 13:17:44;;;;;;;;;;;24.80;59.30;;;;;;4953943;28;19921;-88
2023/09/18 13:20:24;;;;;;;;;;;24.90;59.80;;;;;;4956674;28;19922;-85
2023/09/18 13:22:50;;;;;;;;;;;24.90;58.10;;;;;;4954577;28;19921;-86
2023/09/18 13:25:21;;;;;;;;;;;25.10;58.50;;;;;;4953711;28;19930;-85
2023/09/18 13:27:49;;;;;;;;;;;25.20;59.00;;;;;;4951288;28;19923;-86
2023/09/18 13:30:17;;;;;;;;;;;25.30;56.70;;;;;;4954162;28;19921;-86
2023/09/18 13:32:43;;;;;;;;;;;25.20;55.90;;;;;;4954463;28;19922;-88
2023/09/18 13:35:11;;;;;;;;;;;25.20;56.70;;;;;;4952121;28;19931;-87
2023/09/18 13:37:37;;;;;;;;;;;25.20;56.30;;;;;;4955179;28;20435;-85
2023/09/18 13:40:07;;;;;;;;;;;25.20;55.20;;;;;;4952425;28;19915;-86
2023/09/18 13:42:33;;;;;;;;;;;25.30;54.90;;;;;;4946301;28;19969;-88
2023/09/18 13:45:00;;;;;;;;;;;25.30;55.00;;;;;;4952123;28;19922;-86
2023/09/18 13:47:27;;;;;;;;;;;25.40;55.00;;;;;;4955409;28;19921;-86
2023/09/18 13:49:52;;;;;;;;;;;25.50;55.40;;;;;;4955746;28;20353;-86
2023/09/18 13:52:19;;;;;;;;;;;25.40;54.90;;;;;;4970145;28;19918;-87
2023/09/18 13:54:50;;;;;;;;;;;25.20;56.00;;;;;;4954326;28;20017;-86
2023/09/18 13:57:16;;;;;;;;;;;25.20;55.10;;;;;;4954680;28;19915;-87
2023/09/18 13:59:42;;;;;;;;;;;25.00;56.70;;;;;;4954230;29;20426;-87
2023/09/18 14:02:08;;;;;;;;;;;25.00;56.80;;;;;;4952947;28;19918;-86
2023/09/18 14:04:34;;;;;;;;;;;25.00;56.20;;;;;;4954874;28;19922;-87
2023/09/18 14:06:59;;;;;;;;;;;25.00;54.20;;;;;;4953773;28;19918;-86
2023/09/18 14:09:25;;;;;;;;;;;24.90;54.80;;;;;;4955917;28;19926;-89
2023/09/18 14:11:50;;;;;;;;;;;25.00;55.80;;;;;;4953923;28;19914;-86
2023/09/18 14:14:16;;;;;;;;;;;25.00;55.30;;;;;;4954706;28;19914;-87
2023/09/18 14:16:44;;;;;;;;;;;24.90;55.60;;;;;;4955178;28;19911;-89
2023/09/18 14:19:11;;;;;;;;;;;25.00;55.30;;;;;;4956754;28;19925;-89
2023/09/18 14:21:54;;;;;;;;;;;24.90;55.80;;;;;;4955197;29;19934;-88
2023/09/18 14:24:25;;;;;;;;;;;24.70;56.30;;;;;;4956095;29;19914;-87
2023/09/18 14:26:51;;;;;;;;;;;24.70;56.30;;;;;;4954945;28;19942;-87
2023/09/18 14:29:17;;;;;;;;;;;24.70;56.40;;;;;;4955319;28;19915;-87